createdAt,value
2022-10-05T00:00:00.713Z,77.38
2022-10-05T00:02:32.981Z,79.39
2022-10-05T00:05:00.480Z,78.44
2022-10-05T00:07:31.055Z,76.56
2022-10-05T00:09:59.805Z,76.64
2022-10-05T00:12:29.669Z,77.44
2022-10-05T00:15:01.671Z,76.89
2022-10-05T00:17:31.277Z,77.19
2022-10-05T00:19:58.691Z,76.05
2022-10-05T00:22:31.908Z,76.30
2022-10-05T00:25:01.072Z,76.44
2022-10-05T00:27:33.767Z,76.21
2022-10-05T00:30:04.027Z,76.48
2022-10-05T00:32:32.749Z,79.02
2022-10-05T00:35:00.224Z,77.63
2022-10-05T00:37:27.600Z,78.56
2022-10-05T00:39:54.973Z,79.56
2022-10-05T00:42:35.320Z,78.01
2022-10-05T00:45:08.942Z,77.94
2022-10-05T00:47:48.000Z,80.16
2022-10-05T00:50:49.633Z,76.91
2022-10-05T00:53:31.010Z,76.96
2022-10-05T00:56:04.368Z,77.87
2022-10-05T00:58:49.393Z,79.19
2022-10-05T01:01:22.610Z,80.74
2022-10-05T01:04:01.165Z,81.69
2022-10-05T01:06:43.796Z,78.74
2022-10-05T01:09:23.088Z,78.45
2022-10-05T01:11:57.500Z,79.96
2022-10-05T01:14:32.407Z,77.81
2022-10-05T01:17:06.737Z,78.46
2022-10-05T01:20:04.137Z,79.91
2022-10-05T01:22:52.765Z,81.80
2022-10-05T01:25:25.966Z,79.67
2022-10-05T01:28:02.917Z,81.39
2022-10-05T01:30:34.124Z,81.50
2022-10-05T01:33:10.294Z,79.59
2022-10-05T01:35:47.216Z,79.67
2022-10-05T01:38:30.389Z,79.00
2022-10-05T01:41:08.268Z,79.60
2022-10-05T01:43:43.115Z,78.34
2022-10-05T01:46:22.587Z,81.28
2022-10-05T01:49:03.353Z,82.13
2022-10-05T01:51:38.796Z,79.46
2022-10-05T01:54:16.668Z,79.74
2022-10-05T01:56:51.300Z,78.55
2022-10-05T01:59:28.035Z,77.77
2022-10-05T02:02:01.254Z,80.17
2022-10-05T02:05:00.464Z,80.52
2022-10-05T02:07:24.399Z,79.09
2022-10-05T02:09:57.074Z,77.94
2022-10-05T02:12:28.479Z,76.75
2022-10-05T02:15:02.968Z,78.45
2022-10-05T02:17:39.292Z,77.42
2022-10-05T02:20:11.209Z,78.63
2022-10-05T02:22:43.199Z,77.38
2022-10-05T02:25:14.437Z,77.21
2022-10-05T02:27:48.638Z,79.05
2022-10-05T02:30:19.029Z,77.69
2022-10-05T02:32:52.437Z,78.76
2022-10-05T02:35:20.955Z,78.98
2022-10-05T02:37:57.785Z,78.33
2022-10-05T02:40:38.430Z,78.25
2022-10-05T02:43:18.696Z,77.21
2022-10-05T02:45:53.523Z,77.60
2022-10-05T02:48:32.073Z,77.02
2022-10-05T02:51:09.689Z,77.69
2022-10-05T02:53:47.979Z,77.22
2022-10-05T02:56:23.747Z,78.75
2022-10-05T02:59:02.864Z,78.55
2022-10-05T03:01:36.838Z,77.78
2022-10-05T03:04:15.108Z,79.12
2022-10-05T03:06:50.564Z,78.50
2022-10-05T03:09:21.458Z,78.02
2022-10-05T03:11:59.621Z,77.04
2022-10-05T03:14:34.471Z,77.99
2022-10-05T03:17:14.472Z,78.82
2022-10-05T03:19:56.547Z,77.78
2022-10-05T03:22:34.672Z,77.18
2022-10-05T03:25:23.902Z,77.64
2022-10-05T03:27:59.633Z,77.71
2022-10-05T03:30:32.036Z,78.68
2022-10-05T03:33:11.818Z,78.43
2022-10-05T03:35:51.128Z,79.30
2022-10-05T03:38:27.710Z,77.78
2022-10-05T03:41:00.276Z,80.77
2022-10-05T03:43:46.462Z,79.82
2022-10-05T03:46:20.542Z,82.13
2022-10-05T03:48:55.794Z,78.90
2022-10-05T03:51:29.581Z,78.56
2022-10-05T03:54:01.682Z,80.27
2022-10-05T03:56:39.541Z,80.34
2022-10-05T03:59:21.445Z,80.07
2022-10-05T04:01:55.562Z,80.49
2022-10-05T04:04:29.148Z,81.06
2022-10-05T04:06:58.893Z,80.39
2022-10-05T04:09:31.374Z,79.18
2022-10-05T04:12:07.524Z,80.34
2022-10-05T04:14:39.504Z,78.78
2022-10-05T04:17:13.066Z,79.45
2022-10-05T04:19:46.273Z,79.81
2022-10-05T04:22:18.420Z,78.66
2022-10-05T04:24:50.206Z,77.17
2022-10-05T04:27:20.872Z,79.42
2022-10-05T04:29:53.702Z,79.51
2022-10-05T04:32:31.776Z,79.12
2022-10-05T04:35:18.007Z,78.80
2022-10-05T04:37:53.661Z,81.74
2022-10-05T04:40:37.301Z,82.39
2022-10-05T04:43:09.394Z,79.51
2022-10-05T04:45:54.976Z,77.85
2022-10-05T04:48:41.435Z,79.49
2022-10-05T04:51:21.988Z,79.21
2022-10-05T04:53:56.033Z,78.84
2022-10-05T04:56:35.182Z,80.51
2022-10-05T04:59:22.332Z,82.04
2022-10-05T05:02:06.626Z,81.00
2022-10-05T05:04:51.856Z,78.95
2022-10-05T05:07:33.383Z,77.73
2022-10-05T05:10:44.101Z,77.99
2022-10-05T05:13:25.642Z,77.11
2022-10-05T05:15:57.307Z,76.01
2022-10-05T05:18:42.118Z,77.37
2022-10-05T05:21:17.835Z,78.05
2022-10-05T05:23:52.413Z,79.49
2022-10-05T05:26:32.037Z,77.94
2022-10-05T05:29:09.724Z,79.52
2022-10-05T05:31:46.020Z,77.71
2022-10-05T05:34:30.668Z,76.36
2022-10-05T05:37:08.868Z,77.08
2022-10-05T05:39:46.152Z,79.37
2022-10-05T05:42:26.022Z,77.88
2022-10-05T05:44:57.429Z,79.25
2022-10-05T05:47:31.033Z,80.04
2022-10-05T05:50:13.747Z,80.56
2022-10-05T05:52:46.798Z,79.44
2022-10-05T05:55:20.212Z,80.80
2022-10-05T05:57:54.634Z,79.80
2022-10-05T06:00:24.835Z,80.17
2022-10-05T06:02:59.055Z,79.32
2022-10-05T06:05:33.158Z,78.71
2022-10-05T06:08:07.858Z,78.26
2022-10-05T06:10:43.196Z,78.07
2022-10-05T06:13:18.097Z,76.18
2022-10-05T06:15:50.447Z,78.74
2022-10-05T06:18:21.652Z,79.05
2022-10-05T06:20:54.786Z,76.11
2022-10-05T06:23:29.163Z,77.76
2022-10-05T06:26:12.438Z,77.43
2022-10-05T06:28:40.006Z,77.32
2022-10-05T06:31:19.215Z,78.16
2022-10-05T06:33:51.551Z,79.26
2022-10-05T06:36:32.465Z,78.26
2022-10-05T06:39:47.399Z,75.60
2022-10-05T06:42:31.056Z,76.34
2022-10-05T06:45:06.926Z,77.26
2022-10-05T06:47:42.354Z,77.68
2022-10-05T06:50:16.308Z,75.58
2022-10-05T06:53:01.443Z,77.61
2022-10-05T06:55:37.755Z,79.96
2022-10-05T06:58:20.840Z,77.85
2022-10-05T07:00:54.098Z,75.01
2022-10-05T07:03:31.290Z,74.50
2022-10-05T07:06:15.207Z,75.07
2022-10-05T07:09:01.154Z,76.36
2022-10-05T07:11:42.328Z,75.55
2022-10-05T07:14:21.307Z,77.09
2022-10-05T07:17:02.572Z,74.42
2022-10-05T07:19:39.510Z,74.50
2022-10-05T07:22:33.360Z,75.32
2022-10-05T07:25:10.411Z,73.65
2022-10-05T07:27:47.160Z,72.88
2022-10-05T07:30:18.735Z,72.79
2022-10-05T07:32:56.459Z,72.42
2022-10-05T07:35:53.515Z,71.39
2022-10-05T07:38:32.613Z,73.70
2022-10-05T07:41:05.572Z,72.27
2022-10-05T07:44:01.033Z,72.07
2022-10-05T07:46:40.038Z,71.88
2022-10-05T07:49:17.558Z,71.87
2022-10-05T07:51:49.331Z,73.82
2022-10-05T07:54:24.695Z,71.98
2022-10-05T07:56:58.380Z,71.52
2022-10-05T07:59:35.594Z,70.43
2022-10-05T08:02:14.554Z,70.21
2022-10-05T08:04:51.762Z,71.62
2022-10-05T08:07:19.825Z,71.94
2022-10-05T08:09:54.266Z,74.60
2022-10-05T08:12:31.762Z,72.54
2022-10-05T08:15:03.809Z,71.72
2022-10-05T08:17:44.718Z,71.60
2022-10-05T08:20:25.324Z,74.36
2022-10-05T08:22:58.848Z,76.16
2022-10-05T08:25:30.952Z,80.14
2022-10-05T08:28:06.010Z,76.34
2022-10-05T08:30:40.527Z,75.63
2022-10-05T08:33:14.028Z,73.68
2022-10-05T08:35:44.011Z,74.60
2022-10-05T08:38:14.772Z,71.99
2022-10-05T08:41:12.783Z,73.45
2022-10-05T08:44:27.536Z,70.74
2022-10-05T08:47:12.088Z,70.47
2022-10-05T08:49:59.279Z,69.77
2022-10-05T08:52:29.069Z,69.30
2022-10-05T08:55:39.261Z,69.13
2022-10-05T08:58:26.837Z,69.05
2022-10-05T09:01:02.615Z,69.74
2022-10-05T09:04:01.728Z,68.61
2022-10-05T09:06:51.635Z,68.64
2022-10-05T09:09:47.176Z,68.35
2022-10-05T09:12:40.765Z,70.47
2022-10-05T09:15:29.918Z,69.80
2022-10-05T09:18:37.054Z,70.22
2022-10-05T09:21:12.144Z,71.88
2022-10-05T09:23:44.085Z,70.68
2022-10-05T09:26:42.800Z,70.01
2022-10-05T09:29:36.242Z,68.29
2022-10-05T09:32:27.769Z,70.00
2022-10-05T09:35:14.533Z,71.17
2022-10-05T09:38:05.253Z,69.12
2022-10-05T09:41:08.865Z,68.63
2022-10-05T09:44:06.051Z,68.41
2022-10-05T09:46:52.429Z,69.26
2022-10-05T09:49:44.507Z,69.44
2022-10-05T09:52:50.253Z,68.73
2022-10-05T09:55:45.038Z,68.62
2022-10-05T09:58:46.113Z,68.08
2022-10-05T10:01:34.364Z,69.76
2022-10-05T10:04:15.360Z,68.86
2022-10-05T10:07:06.342Z,71.57
2022-10-05T10:09:46.678Z,69.77
2022-10-05T10:12:35.774Z,69.60
2022-10-05T10:15:41.254Z,69.13
2022-10-05T10:18:29.135Z,70.04
2022-10-05T10:21:13.939Z,68.93
2022-10-05T10:24:09.001Z,70.67
2022-10-05T10:26:56.005Z,69.49
2022-10-05T10:29:45.831Z,70.91
2022-10-05T10:32:36.317Z,70.13
2022-10-05T10:35:31.295Z,69.25
2022-10-05T10:38:24.440Z,68.85
2022-10-05T10:41:10.618Z,69.41
2022-10-05T10:43:59.414Z,69.91
2022-10-05T10:46:40.247Z,69.32
2022-10-05T10:49:21.947Z,70.09
2022-10-05T10:52:18.315Z,69.93
2022-10-05T10:55:28.020Z,70.76
2022-10-05T11:01:20.739Z,70.75
2022-10-05T11:04:06.692Z,69.31
2022-10-05T11:06:46.984Z,69.91
2022-10-05T11:09:49.791Z,70.41
2022-10-05T11:12:57.995Z,69.34
2022-10-05T11:15:45.863Z,71.40
2022-10-05T11:18:20.585Z,68.56
2022-10-05T11:21:30.302Z,74.42
2022-10-05T11:24:44.609Z,68.23
2022-10-05T11:27:24.525Z,67.72
2022-10-05T11:30:20.778Z,66.66
2022-10-05T11:33:11.313Z,65.74
2022-10-05T11:35:54.050Z,68.00
2022-10-05T11:38:46.050Z,68.41
2022-10-05T11:41:42.383Z,68.87
2022-10-05T11:44:36.462Z,69.34
2022-10-05T11:47:14.807Z,69.35
2022-10-05T11:49:48.406Z,69.90
2022-10-05T11:52:21.846Z,69.49
2022-10-05T11:55:15.399Z,68.94
2022-10-05T11:57:51.202Z,68.17
2022-10-05T12:00:21.058Z,67.91
2022-10-05T12:03:23.751Z,69.05
2022-10-05T12:06:03.631Z,68.51
2022-10-05T12:08:41.672Z,68.79
2022-10-05T12:11:32.788Z,68.00
2022-10-05T12:14:06.408Z,66.77
2022-10-05T12:16:41.546Z,66.86
2022-10-05T12:19:16.369Z,67.57
2022-10-05T12:21:50.389Z,68.07
2022-10-05T12:24:27.058Z,67.57
2022-10-05T12:27:02.979Z,67.05
2022-10-05T12:29:40.540Z,67.55
2022-10-05T12:32:14.360Z,67.40
2022-10-05T12:34:51.578Z,67.59
2022-10-05T12:37:39.578Z,66.89
2022-10-05T12:40:19.141Z,68.36
2022-10-05T12:42:55.538Z,69.04
2022-10-05T12:45:34.296Z,67.52
2022-10-05T12:48:18.896Z,67.30
2022-10-05T12:50:50.366Z,67.12
2022-10-05T12:53:29.661Z,66.91
2022-10-05T12:56:04.905Z,67.53
2022-10-05T12:58:41.019Z,66.18
2022-10-05T13:01:20.616Z,66.45
2022-10-05T13:03:55.845Z,65.35
2022-10-05T13:06:30.701Z,66.40
2022-10-05T13:09:03.194Z,66.09
2022-10-05T13:11:36.913Z,66.35
2022-10-05T13:14:17.224Z,65.38
2022-10-05T13:16:54.745Z,65.16
2022-10-05T13:19:35.409Z,65.68
2022-10-05T13:22:18.960Z,66.25
2022-10-05T13:24:59.424Z,66.07
2022-10-05T13:27:31.750Z,66.54
2022-10-05T13:30:03.606Z,66.20
2022-10-05T13:32:36.046Z,66.13
2022-10-05T13:35:21.878Z,65.62
2022-10-05T13:38:01.673Z,64.79
2022-10-05T13:40:36.484Z,65.47
2022-10-05T13:43:12.489Z,64.87
2022-10-05T13:45:45.831Z,63.93
2022-10-05T13:48:27.687Z,63.99
2022-10-05T13:51:03.803Z,63.01
2022-10-05T13:53:41.294Z,63.55
2022-10-05T13:56:18.527Z,63.80
2022-10-05T13:58:48.798Z,63.10
2022-10-05T14:01:19.601Z,63.23
2022-10-05T14:04:07.538Z,64.25
2022-10-05T14:06:38.003Z,64.00
2022-10-05T14:09:05.468Z,63.90
2022-10-05T14:11:34.832Z,64.97
2022-10-05T14:14:13.526Z,65.26
2022-10-05T14:16:49.570Z,64.21
2022-10-05T14:19:26.838Z,64.95
2022-10-05T14:21:59.618Z,66.09
2022-10-05T14:24:45.879Z,65.25
2022-10-05T14:27:21.864Z,65.35
2022-10-05T14:29:57.728Z,66.36
2022-10-05T14:32:27.149Z,65.86
2022-10-05T14:35:14.163Z,65.81
2022-10-05T14:37:53.527Z,65.76
2022-10-05T14:40:32.592Z,66.63
2022-10-05T14:43:03.150Z,66.32
2022-10-05T14:45:33.469Z,66.46
2022-10-05T14:48:12.573Z,64.62
2022-10-05T14:50:57.205Z,65.31
2022-10-05T14:53:27.423Z,65.17
2022-10-05T14:56:18.687Z,66.97
2022-10-05T14:59:23.558Z,66.49
2022-10-05T15:01:57.954Z,66.08
2022-10-05T15:04:37.827Z,65.98
2022-10-05T15:07:19.686Z,66.55
2022-10-05T15:10:32.448Z,66.20
2022-10-05T15:13:11.489Z,65.93
2022-10-05T15:15:49.041Z,64.47
2022-10-05T15:18:31.659Z,65.08
2022-10-05T15:21:10.285Z,65.08
2022-10-05T15:23:47.555Z,64.86
2022-10-05T15:26:32.313Z,65.46
2022-10-05T15:29:08.060Z,66.39
2022-10-05T15:31:41.963Z,67.17
2022-10-05T15:34:17.844Z,65.66
2022-10-05T15:36:54.316Z,65.59
2022-10-05T15:39:34.952Z,66.36
2022-10-05T15:42:07.006Z,65.14
2022-10-05T15:44:49.973Z,65.60
2022-10-05T15:47:23.834Z,68.28
2022-10-05T15:50:02.315Z,68.92
2022-10-05T15:52:38.813Z,68.06
2022-10-05T15:55:26.707Z,67.27
2022-10-05T15:58:05.030Z,67.81
2022-10-05T16:00:38.165Z,67.34
2022-10-05T16:03:17.934Z,68.07
2022-10-05T16:06:27.263Z,67.06
2022-10-05T16:09:13.513Z,68.59
2022-10-05T16:12:05.297Z,67.92
2022-10-05T16:14:49.505Z,67.95
2022-10-05T16:17:33.992Z,67.82
2022-10-05T16:20:22.102Z,66.75
2022-10-05T16:23:04.561Z,67.93
2022-10-05T16:25:45.397Z,68.44
2022-10-05T16:28:29.133Z,68.99
2022-10-05T16:31:03.234Z,68.13
2022-10-05T16:33:46.065Z,69.06
2022-10-05T16:36:25.358Z,68.95
2022-10-05T16:39:02.004Z,67.85
2022-10-05T16:41:34.948Z,68.94
2022-10-05T16:44:15.332Z,68.71
2022-10-05T16:46:51.029Z,68.02
2022-10-05T16:49:32.647Z,67.92
2022-10-05T16:52:01.969Z,67.53
2022-10-05T16:54:33.534Z,67.36
2022-10-05T16:57:06.874Z,67.27
2022-10-05T16:59:56.766Z,67.89
2022-10-05T17:02:46.111Z,66.97
2022-10-05T17:05:27.080Z,67.55
2022-10-05T17:08:13.855Z,67.50
2022-10-05T17:10:55.741Z,67.20
2022-10-05T17:13:40.102Z,66.85
2022-10-05T17:16:20.110Z,67.75
2022-10-05T17:19:26.819Z,67.90
2022-10-05T17:22:00.423Z,68.38
2022-10-05T17:24:49.514Z,69.26
2022-10-05T17:27:22.071Z,68.78
2022-10-05T17:29:52.420Z,68.94
2022-10-05T17:32:56.909Z,69.04
2022-10-05T17:35:53.202Z,69.11
2022-10-05T17:38:23.234Z,68.77
2022-10-05T17:41:19.804Z,69.55
2022-10-05T17:44:20.126Z,69.49
2022-10-05T17:46:49.124Z,70.17
2022-10-05T17:50:09.736Z,70.46
2022-10-05T17:52:58.788Z,70.20
2022-10-05T17:55:45.210Z,70.39
2022-10-05T17:59:01.630Z,71.22
2022-10-05T18:01:32.032Z,71.89
2022-10-05T18:04:48.708Z,72.68
2022-10-05T18:07:22.917Z,72.92
2022-10-05T18:10:20.276Z,72.34
2022-10-05T18:12:49.896Z,73.06
2022-10-05T18:15:44.024Z,72.47
2022-10-05T18:18:34.711Z,72.84
2022-10-05T18:21:35.694Z,73.96
2022-10-05T18:24:36.386Z,73.96
2022-10-05T18:27:34.285Z,73.31
2022-10-05T18:30:17.020Z,73.79
2022-10-05T18:33:29.773Z,73.97
2022-10-05T18:36:06.679Z,74.27
2022-10-05T18:38:45.384Z,73.34
2022-10-05T18:41:23.487Z,74.38
2022-10-05T18:44:01.474Z,73.86
2022-10-05T18:46:39.447Z,74.93
2022-10-05T18:49:22.454Z,74.79
2022-10-05T18:51:53.438Z,74.79
2022-10-05T18:54:37.256Z,76.69
2022-10-05T18:57:45.314Z,77.67
2022-10-05T19:00:16.867Z,75.25
2022-10-05T19:02:48.266Z,77.75
2022-10-05T19:05:46.973Z,76.72
2022-10-05T19:08:23.959Z,77.15
2022-10-05T19:10:56.093Z,77.21
2022-10-05T19:13:38.591Z,79.42
2022-10-05T19:16:28.144Z,78.68
2022-10-05T19:19:09.324Z,76.50
2022-10-05T19:21:47.518Z,77.49
2022-10-05T19:24:41.743Z,77.03
2022-10-05T19:27:17.809Z,76.01
2022-10-05T19:30:13.538Z,76.33
2022-10-05T19:32:52.976Z,74.81
2022-10-05T19:35:28.742Z,74.72
2022-10-05T19:38:15.389Z,74.43
2022-10-05T19:40:53.155Z,76.04
2022-10-05T19:43:50.573Z,77.61
2022-10-05T19:46:30.821Z,78.28
2022-10-05T19:49:00.179Z,79.69
2022-10-05T19:51:30.559Z,80.75
2022-10-05T19:54:01.154Z,81.92
2022-10-05T19:56:33.453Z,78.64
2022-10-05T19:59:13.160Z,80.53
2022-10-05T20:01:50.442Z,78.82
2022-10-05T20:04:32.608Z,78.84
2022-10-05T20:07:00.421Z,78.23
2022-10-05T20:09:27.910Z,78.77
2022-10-05T20:11:56.478Z,79.26
2022-10-05T20:14:30.843Z,77.75
2022-10-05T20:17:33.906Z,79.58
2022-10-05T20:20:23.819Z,79.95
2022-10-05T20:22:51.256Z,77.90
2022-10-05T20:25:37.971Z,79.27
2022-10-05T20:28:06.615Z,77.87
2022-10-05T20:30:34.155Z,77.73
2022-10-05T20:33:04.608Z,78.86
2022-10-05T20:35:32.187Z,77.37
2022-10-05T20:38:00.192Z,78.64
2022-10-05T20:40:29.053Z,79.13
2022-10-05T20:42:57.000Z,77.58
2022-10-05T20:45:24.844Z,79.08
2022-10-05T20:47:52.299Z,79.96
2022-10-05T20:50:22.209Z,78.29
2022-10-05T20:52:50.364Z,76.54
2022-10-05T20:55:18.222Z,76.13
2022-10-05T20:57:46.162Z,77.88
2022-10-05T21:00:14.670Z,76.13
2022-10-05T21:02:42.324Z,78.37
2022-10-05T21:05:11.385Z,76.90
2022-10-05T21:07:40.921Z,76.14
2022-10-05T21:10:14.116Z,76.03
2022-10-05T21:12:42.074Z,77.11
2022-10-05T21:15:11.507Z,76.93
2022-10-05T21:17:39.078Z,76.18
2022-10-05T21:20:07.361Z,76.50
2022-10-05T21:22:36.367Z,77.71
2022-10-05T21:25:08.807Z,76.78
2022-10-05T21:27:36.260Z,76.70
2022-10-05T21:30:03.818Z,77.65
2022-10-05T21:32:31.234Z,76.97
2022-10-05T21:34:58.900Z,78.27
2022-10-05T21:37:26.370Z,76.98
2022-10-05T21:39:53.781Z,80.58
2022-10-05T21:42:23.579Z,77.97
2022-10-05T21:44:51.125Z,77.23
2022-10-05T21:47:18.552Z,77.10
2022-10-05T21:49:46.000Z,77.28
2022-10-05T21:52:14.094Z,77.21
2022-10-05T21:54:41.590Z,77.23
2022-10-05T21:57:15.338Z,77.16
2022-10-05T21:59:44.696Z,77.11
2022-10-05T22:02:12.162Z,80.26
2022-10-05T22:04:39.627Z,77.25
2022-10-05T22:07:14.580Z,79.80
2022-10-05T22:09:41.974Z,77.54
2022-10-05T22:12:09.402Z,77.90
2022-10-05T22:14:36.830Z,80.72
2022-10-05T22:17:05.988Z,79.12
2022-10-05T22:19:33.584Z,81.44
2022-10-05T22:22:00.974Z,78.78
2022-10-05T22:24:28.366Z,81.09
2022-10-05T22:26:55.846Z,82.68
2022-10-05T22:29:24.043Z,81.14
2022-10-05T22:31:56.139Z,79.19
2022-10-05T22:34:25.090Z,86.14
2022-10-05T22:36:52.789Z,84.79
2022-10-05T22:39:20.194Z,83.87
2022-10-05T22:41:47.824Z,82.41
2022-10-05T22:44:15.250Z,82.10
2022-10-05T22:46:42.699Z,77.42
2022-10-05T22:49:10.207Z,77.34
2022-10-05T22:51:38.970Z,76.98
2022-10-05T22:54:06.961Z,75.55
2022-10-05T22:56:35.070Z,75.49
2022-10-05T22:59:02.510Z,78.09
2022-10-05T23:01:30.038Z,77.12
2022-10-05T23:03:57.745Z,80.00
2022-10-05T23:06:26.483Z,81.29
2022-10-05T23:08:55.686Z,80.75
2022-10-05T23:11:25.901Z,81.58
2022-10-05T23:13:55.657Z,81.61
2022-10-05T23:16:24.705Z,79.93
2022-10-05T23:18:53.958Z,78.00
2022-10-05T23:21:23.966Z,79.47
2022-10-05T23:23:51.847Z,81.20
2022-10-05T23:26:23.114Z,80.61
2022-10-05T23:28:50.575Z,80.38
2022-10-05T23:31:19.508Z,81.18
2022-10-05T23:33:47.200Z,83.60
2022-10-05T23:36:17.121Z,80.65
2022-10-05T23:38:45.264Z,83.53
2022-10-05T23:41:12.762Z,81.21
2022-10-05T23:43:41.518Z,79.27
2022-10-05T23:46:10.321Z,78.84
2022-10-05T23:48:38.873Z,81.30
2022-10-05T23:51:07.280Z,84.23
2022-10-05T23:53:35.003Z,85.17
2022-10-05T23:56:02.775Z,80.64
2022-10-05T23:58:30.568Z,82.28
